sensor_id;sensor_type;location;lat;lon;timestamp;P1;durP1;ratioP1;P2;durP2;ratioP2
80423;SDS011;69765;47.668;19.326;2023-08-08T00:02:08;1.33;;;0.80;;
80423;SDS011;69765;47.668;19.326;2023-08-08T00:05:10;1.17;;;0.68;;
80423;SDS011;69765;47.668;19.326;2023-08-08T00:08:12;1.58;;;1.10;;
80423;SDS011;69765;47.668;19.326;2023-08-08T00:11:14;1.52;;;0.95;;
80423;SDS011;69765;47.668;19.326;2023-08-08T00:14:16;1.63;;;0.90;;
80423;SDS011;69765;47.668;19.326;2023-08-08T00:17:18;0.88;;;0.63;;
80423;SDS011;69765;47.668;19.326;2023-08-08T00:20:20;4.13;;;1.00;;
80423;SDS011;69765;47.668;19.326;2023-08-08T00:23:22;1.40;;;0.90;;
80423;SDS011;69765;47.668;19.326;2023-08-08T00:26:24;1.13;;;0.70;;
80423;SDS011;69765;47.668;19.326;2023-08-08T00:29:26;1.30;;;0.70;;
80423;SDS011;69765;47.668;19.326;2023-08-08T00:32:28;1.10;;;0.60;;
80423;SDS011;69765;47.668;19.326;2023-08-08T00:35:30;1.55;;;0.80;;
80423;SDS011;69765;47.668;19.326;2023-08-08T00:38:32;1.98;;;1.00;;
80423;SDS011;69765;47.668;19.326;2023-08-08T00:41:34;1.50;;;0.80;;
80423;SDS011;69765;47.668;19.326;2023-08-08T00:44:37;1.98;;;0.80;;
80423;SDS011;69765;47.668;19.326;2023-08-08T00:47:39;1.23;;;0.60;;
80423;SDS011;69765;47.668;19.326;2023-08-08T00:50:42;1.20;;;0.63;;
80423;SDS011;69765;47.668;19.326;2023-08-08T00:53:46;1.30;;;0.80;;
80423;SDS011;69765;47.668;19.326;2023-08-08T00:56:49;0.98;;;0.63;;
80423;SDS011;69765;47.668;19.326;2023-08-08T00:59:51;1.27;;;0.60;;
80423;SDS011;69765;47.668;19.326;2023-08-08T01:02:53;0.95;;;0.63;;
80423;SDS011;69765;47.668;19.326;2023-08-08T01:06:02;1.48;;;0.70;;
80423;SDS011;69765;47.668;19.326;2023-08-08T01:09:52;1.33;;;0.82;;
80423;SDS011;69765;47.668;19.326;2023-08-08T01:12:30;1.02;;;0.73;;
80423;SDS011;69765;47.668;19.326;2023-08-08T01:15:32;0.93;;;0.60;;
80423;SDS011;69765;47.668;19.326;2023-08-08T01:18:37;1.73;;;0.90;;
80423;SDS011;69765;47.668;19.326;2023-08-08T01:21:40;1.70;;;0.80;;
80423;SDS011;69765;47.668;19.326;2023-08-08T01:24:44;1.80;;;0.63;;
80423;SDS011;69765;47.668;19.326;2023-08-08T01:27:46;0.85;;;0.63;;
80423;SDS011;69765;47.668;19.326;2023-08-08T01:30:48;1.33;;;0.80;;
80423;SDS011;69765;47.668;19.326;2023-08-08T01:33:52;0.95;;;0.57;;
80423;SDS011;69765;47.668;19.326;2023-08-08T01:37:16;1.80;;;0.75;;
80423;SDS011;69765;47.668;19.326;2023-08-08T01:40:16;1.40;;;0.80;;
80423;SDS011;69765;47.668;19.326;2023-08-08T01:43:19;1.42;;;0.65;;
80423;SDS011;69765;47.668;19.326;2023-08-08T01:46:22;1.77;;;0.90;;
80423;SDS011;69765;47.668;19.326;2023-08-08T01:49:28;1.85;;;0.93;;
80423;SDS011;69765;47.668;19.326;2023-08-08T01:52:30;1.00;;;0.52;;
80423;SDS011;69765;47.668;19.326;2023-08-08T01:55:32;1.75;;;1.00;;
80423;SDS011;69765;47.668;19.326;2023-08-08T01:58:34;1.70;;;0.90;;
80423;SDS011;69765;47.668;19.326;2023-08-08T02:01:36;1.00;;;0.60;;
80423;SDS011;69765;47.668;19.326;2023-08-08T02:04:38;1.65;;;1.30;;
80423;SDS011;69765;47.668;19.326;2023-08-08T02:07:40;1.27;;;0.80;;
80423;SDS011;69765;47.668;19.326;2023-08-08T02:10:42;1.45;;;0.60;;
80423;SDS011;69765;47.668;19.326;2023-08-08T02:13:44;2.22;;;0.90;;
80423;SDS011;69765;47.668;19.326;2023-08-08T02:16:46;1.23;;;0.77;;
80423;SDS011;69765;47.668;19.326;2023-08-08T02:19:48;1.42;;;0.80;;
80423;SDS011;69765;47.668;19.326;2023-08-08T02:22:50;2.08;;;0.93;;
80423;SDS011;69765;47.668;19.326;2023-08-08T02:25:52;1.38;;;0.80;;
80423;SDS011;69765;47.668;19.326;2023-08-08T02:28:54;1.60;;;0.82;;
80423;SDS011;69765;47.668;19.326;2023-08-08T02:31:56;1.30;;;0.68;;
80423;SDS011;69765;47.668;19.326;2023-08-08T02:35:00;0.95;;;0.63;;
80423;SDS011;69765;47.668;19.326;2023-08-08T02:38:02;2.38;;;0.90;;
80423;SDS011;69765;47.668;19.326;2023-08-08T02:41:04;1.58;;;0.82;;
80423;SDS011;69765;47.668;19.326;2023-08-08T02:44:06;4.85;;;0.82;;
80423;SDS011;69765;47.668;19.326;2023-08-08T02:47:08;1.30;;;0.80;;
80423;SDS011;69765;47.668;19.326;2023-08-08T02:50:10;1.60;;;0.88;;
80423;SDS011;69765;47.668;19.326;2023-08-08T02:53:12;1.40;;;0.85;;
80423;SDS011;69765;47.668;19.326;2023-08-08T02:56:19;2.50;;;1.42;;
80423;SDS011;69765;47.668;19.326;2023-08-08T02:59:21;1.92;;;1.10;;
80423;SDS011;69765;47.668;19.326;2023-08-08T03:02:25;1.83;;;0.93;;
80423;SDS011;69765;47.668;19.326;2023-08-08T03:05:28;1.73;;;0.93;;
80423;SDS011;69765;47.668;19.326;2023-08-08T03:08:30;3.75;;;1.10;;
80423;SDS011;69765;47.668;19.326;2023-08-08T03:11:32;2.33;;;1.50;;
80423;SDS011;69765;47.668;19.326;2023-08-08T03:14:35;1.30;;;0.88;;
80423;SDS011;69765;47.668;19.326;2023-08-08T03:17:38;2.60;;;1.10;;
80423;SDS011;69765;47.668;19.326;2023-08-08T03:20:40;1.98;;;1.13;;
80423;SDS011;69765;47.668;19.326;2023-08-08T03:23:44;1.45;;;1.10;;
80423;SDS011;69765;47.668;19.326;2023-08-08T03:26:46;1.90;;;1.10;;
80423;SDS011;69765;47.668;19.326;2023-08-08T03:29:48;1.63;;;1.15;;
80423;SDS011;69765;47.668;19.326;2023-08-08T03:32:51;2.38;;;1.33;;
80423;SDS011;69765;47.668;19.326;2023-08-08T03:35:53;3.20;;;1.08;;
80423;SDS011;69765;47.668;19.326;2023-08-08T03:38:55;2.45;;;1.25;;
80423;SDS011;69765;47.668;19.326;2023-08-08T03:41:57;2.35;;;1.30;;
80423;SDS011;69765;47.668;19.326;2023-08-08T03:45:00;4.55;;;1.75;;
80423;SDS011;69765;47.668;19.326;2023-08-08T03:48:02;2.90;;;1.55;;
80423;SDS011;69765;47.668;19.326;2023-08-08T03:51:05;4.25;;;1.83;;
80423;SDS011;69765;47.668;19.326;2023-08-08T03:54:08;7.57;;;1.92;;
80423;SDS011;69765;47.668;19.326;2023-08-08T03:57:10;2.55;;;1.33;;
80423;SDS011;69765;47.668;19.326;2023-08-08T04:00:12;2.50;;;1.30;;
80423;SDS011;69765;47.668;19.326;2023-08-08T04:03:15;2.10;;;0.98;;
80423;SDS011;69765;47.668;19.326;2023-08-08T04:06:17;3.17;;;1.65;;
80423;SDS011;69765;47.668;19.326;2023-08-08T04:09:19;3.53;;;1.80;;
80423;SDS011;69765;47.668;19.326;2023-08-08T04:12:21;3.63;;;1.80;;
80423;SDS011;69765;47.668;19.326;2023-08-08T04:15:23;4.10;;;1.60;;
80423;SDS011;69765;47.668;19.326;2023-08-08T04:18:25;2.70;;;1.20;;
80423;SDS011;69765;47.668;19.326;2023-08-08T04:21:27;2.92;;;1.48;;
80423;SDS011;69765;47.668;19.326;2023-08-08T04:24:30;3.08;;;1.13;;
80423;SDS011;69765;47.668;19.326;2023-08-08T04:27:32;2.42;;;1.20;;
80423;SDS011;69765;47.668;19.326;2023-08-08T04:30:35;2.38;;;1.33;;
80423;SDS011;69765;47.668;19.326;2023-08-08T04:33:37;3.55;;;1.42;;
80423;SDS011;69765;47.668;19.326;2023-08-08T04:36:39;2.00;;;1.60;;
80423;SDS011;69765;47.668;19.326;2023-08-08T04:39:41;1.67;;;1.13;;
80423;SDS011;69765;47.668;19.326;2023-08-08T04:42:44;2.35;;;1.30;;
80423;SDS011;69765;47.668;19.326;2023-08-08T04:45:46;1.60;;;1.10;;
80423;SDS011;69765;47.668;19.326;2023-08-08T04:48:48;2.63;;;1.23;;
80423;SDS011;69765;47.668;19.326;2023-08-08T04:51:50;2.30;;;1.20;;
80423;SDS011;69765;47.668;19.326;2023-08-08T04:54:51;2.20;;;1.20;;
80423;SDS011;69765;47.668;19.326;2023-08-08T04:57:53;2.40;;;1.15;;
80423;SDS011;69765;47.668;19.326;2023-08-08T05:03:57;2.63;;;1.60;;
80423;SDS011;69765;47.668;19.326;2023-08-08T05:06:59;3.45;;;1.45;;
80423;SDS011;69765;47.668;19.326;2023-08-08T05:10:01;3.08;;;0.98;;
80423;SDS011;69765;47.668;19.326;2023-08-08T05:13:04;3.50;;;1.80;;
80423;SDS011;69765;47.668;19.326;2023-08-08T05:16:06;4.65;;;2.17;;
80423;SDS011;69765;47.668;19.326;2023-08-08T05:19:08;3.45;;;1.58;;
80423;SDS011;69765;47.668;19.326;2023-08-08T05:22:10;2.78;;;1.35;;
80423;SDS011;69765;47.668;19.326;2023-08-08T05:25:12;3.15;;;1.35;;
80423;SDS011;69765;47.668;19.326;2023-08-08T05:28:14;5.90;;;2.03;;
80423;SDS011;69765;47.668;19.326;2023-08-08T05:31:16;2.88;;;1.30;;
80423;SDS011;69765;47.668;19.326;2023-08-08T05:34:18;2.45;;;1.48;;
80423;SDS011;69765;47.668;19.326;2023-08-08T05:37:20;2.30;;;1.33;;
80423;SDS011;69765;47.668;19.326;2023-08-08T05:40:22;2.30;;;1.77;;
80423;SDS011;69765;47.668;19.326;2023-08-08T05:43:24;3.30;;;1.98;;
80423;SDS011;69765;47.668;19.326;2023-08-08T05:46:28;7.82;;;2.10;;
80423;SDS011;69765;47.668;19.326;2023-08-08T05:49:30;2.58;;;1.58;;
80423;SDS011;69765;47.668;19.326;2023-08-08T05:52:32;3.78;;;1.70;;
80423;SDS011;69765;47.668;19.326;2023-08-08T05:55:34;4.85;;;1.85;;
80423;SDS011;69765;47.668;19.326;2023-08-08T05:58:36;3.72;;;1.40;;
80423;SDS011;69765;47.668;19.326;2023-08-08T06:01:39;2.85;;;1.77;;
80423;SDS011;69765;47.668;19.326;2023-08-08T06:04:41;2.47;;;1.40;;
80423;SDS011;69765;47.668;19.326;2023-08-08T06:07:43;4.78;;;1.50;;
80423;SDS011;69765;47.668;19.326;2023-08-08T06:10:45;2.40;;;1.40;;
80423;SDS011;69765;47.668;19.326;2023-08-08T06:13:47;2.63;;;1.30;;
80423;SDS011;69765;47.668;19.326;2023-08-08T06:16:49;4.07;;;1.85;;
80423;SDS011;69765;47.668;19.326;2023-08-08T06:19:51;3.47;;;1.50;;
80423;SDS011;69765;47.668;19.326;2023-08-08T06:22:55;1.85;;;1.33;;
80423;SDS011;69765;47.668;19.326;2023-08-08T06:25:57;3.30;;;1.55;;
80423;SDS011;69765;47.668;19.326;2023-08-08T06:29:00;5.55;;;1.63;;
80423;SDS011;69765;47.668;19.326;2023-08-08T06:32:02;1.88;;;1.15;;
80423;SDS011;69765;47.668;19.326;2023-08-08T06:35:04;2.97;;;1.40;;
80423;SDS011;69765;47.668;19.326;2023-08-08T06:38:06;2.13;;;1.23;;
80423;SDS011;69765;47.668;19.326;2023-08-08T06:41:08;2.53;;;1.27;;
80423;SDS011;69765;47.668;19.326;2023-08-08T06:44:10;2.20;;;1.23;;
80423;SDS011;69765;47.668;19.326;2023-08-08T06:47:12;4.53;;;1.52;;
80423;SDS011;69765;47.668;19.326;2023-08-08T06:50:14;3.15;;;1.27;;
80423;SDS011;69765;47.668;19.326;2023-08-08T06:53:18;2.53;;;1.33;;
80423;SDS011;69765;47.668;19.326;2023-08-08T06:56:20;4.75;;;1.65;;
80423;SDS011;69765;47.668;19.326;2023-08-08T06:59:23;6.40;;;1.80;;
80423;SDS011;69765;47.668;19.326;2023-08-08T07:02:25;2.70;;;1.20;;
80423;SDS011;69765;47.668;19.326;2023-08-08T07:05:27;2.10;;;1.45;;
80423;SDS011;69765;47.668;19.326;2023-08-08T07:08:30;2.10;;;1.10;;
80423;SDS011;69765;47.668;19.326;2023-08-08T07:11:32;3.85;;;1.50;;
80423;SDS011;69765;47.668;19.326;2023-08-08T07:14:34;4.38;;;1.75;;
80423;SDS011;69765;47.668;19.326;2023-08-08T07:17:36;2.92;;;1.55;;
80423;SDS011;69765;47.668;19.326;2023-08-08T07:20:38;2.63;;;1.45;;
80423;SDS011;69765;47.668;19.326;2023-08-08T07:23:41;3.17;;;1.50;;
80423;SDS011;69765;47.668;19.326;2023-08-08T07:26:43;2.92;;;1.30;;
80423;SDS011;69765;47.668;19.326;2023-08-08T07:29:45;2.63;;;1.45;;
80423;SDS011;69765;47.668;19.326;2023-08-08T07:32:47;2.20;;;1.55;;
80423;SDS011;69765;47.668;19.326;2023-08-08T07:35:49;3.30;;;1.58;;
80423;SDS011;69765;47.668;19.326;2023-08-08T07:38:51;3.25;;;1.40;;
80423;SDS011;69765;47.668;19.326;2023-08-08T07:41:53;2.47;;;1.20;;
80423;SDS011;69765;47.668;19.326;2023-08-08T07:44:55;2.10;;;1.23;;
80423;SDS011;69765;47.668;19.326;2023-08-08T07:47:57;4.05;;;2.17;;
80423;SDS011;69765;47.668;19.326;2023-08-08T07:50:59;3.25;;;1.63;;
80423;SDS011;69765;47.668;19.326;2023-08-08T07:54:02;3.10;;;1.40;;
80423;SDS011;69765;47.668;19.326;2023-08-08T07:57:04;3.00;;;1.60;;
80423;SDS011;69765;47.668;19.326;2023-08-08T08:00:06;2.08;;;1.42;;
80423;SDS011;69765;47.668;19.326;2023-08-08T08:03:14;4.10;;;1.65;;
80423;SDS011;69765;47.668;19.326;2023-08-08T08:06:16;3.28;;;1.25;;
80423;SDS011;69765;47.668;19.326;2023-08-08T08:09:18;2.90;;;1.50;;
80423;SDS011;69765;47.668;19.326;2023-08-08T08:12:20;2.65;;;1.33;;
80423;SDS011;69765;47.668;19.326;2023-08-08T08:15:22;4.80;;;1.88;;
80423;SDS011;69765;47.668;19.326;2023-08-08T08:18:24;4.45;;;1.45;;
80423;SDS011;69765;47.668;19.326;2023-08-08T08:21:26;2.65;;;1.40;;
80423;SDS011;69765;47.668;19.326;2023-08-08T08:24:28;3.20;;;1.98;;
80423;SDS011;69765;47.668;19.326;2023-08-08T08:27:30;3.42;;;1.85;;
80423;SDS011;69765;47.668;19.326;2023-08-08T08:30:32;5.45;;;1.77;;
80423;SDS011;69765;47.668;19.326;2023-08-08T08:33:34;3.47;;;1.50;;
80423;SDS011;69765;47.668;19.326;2023-08-08T08:36:36;2.53;;;1.52;;
80423;SDS011;69765;47.668;19.326;2023-08-08T08:39:38;2.72;;;1.50;;
80423;SDS011;69765;47.668;19.326;2023-08-08T08:42:40;2.95;;;1.52;;
80423;SDS011;69765;47.668;19.326;2023-08-08T08:45:43;4.45;;;1.38;;
80423;SDS011;69765;47.668;19.326;2023-08-08T08:51:52;2.92;;;1.75;;
80423;SDS011;69765;47.668;19.326;2023-08-08T08:54:54;4.32;;;1.63;;
80423;SDS011;69765;47.668;19.326;2023-08-08T08:57:56;4.10;;;1.77;;
80423;SDS011;69765;47.668;19.326;2023-08-08T09:00:58;4.75;;;2.05;;
80423;SDS011;69765;47.668;19.326;2023-08-08T09:04:01;4.82;;;2.13;;
80423;SDS011;69765;47.668;19.326;2023-08-08T09:07:05;2.70;;;1.38;;
80423;SDS011;69765;47.668;19.326;2023-08-08T09:10:07;3.97;;;1.70;;
80423;SDS011;69765;47.668;19.326;2023-08-08T09:13:09;3.97;;;1.90;;
80423;SDS011;69765;47.668;19.326;2023-08-08T09:16:11;3.28;;;1.35;;
80423;SDS011;69765;47.668;19.326;2023-08-08T09:19:16;5.85;;;1.33;;
80423;SDS011;69765;47.668;19.326;2023-08-08T09:22:19;3.05;;;1.77;;
80423;SDS011;69765;47.668;19.326;2023-08-08T09:25:22;2.38;;;1.42;;
80423;SDS011;69765;47.668;19.326;2023-08-08T09:28:25;2.90;;;1.42;;
80423;SDS011;69765;47.668;19.326;2023-08-08T09:31:27;2.58;;;1.50;;
80423;SDS011;69765;47.668;19.326;2023-08-08T09:34:29;3.33;;;1.88;;
80423;SDS011;69765;47.668;19.326;2023-08-08T09:37:31;4.68;;;1.60;;
80423;SDS011;69765;47.668;19.326;2023-08-08T09:40:33;3.28;;;1.90;;
80423;SDS011;69765;47.668;19.326;2023-08-08T09:43:35;2.53;;;1.77;;
80423;SDS011;69765;47.668;19.326;2023-08-08T09:46:37;4.68;;;2.08;;
80423;SDS011;69765;47.668;19.326;2023-08-08T09:49:40;3.75;;;1.90;;
80423;SDS011;69765;47.668;19.326;2023-08-08T09:52:42;2.85;;;1.55;;
80423;SDS011;69765;47.668;19.326;2023-08-08T09:55:44;2.85;;;2.55;;
80423;SDS011;69765;47.668;19.326;2023-08-08T09:58:47;4.18;;;2.28;;
80423;SDS011;69765;47.668;19.326;2023-08-08T10:01:49;3.03;;;1.95;;
80423;SDS011;69765;47.668;19.326;2023-08-08T10:04:52;3.47;;;1.90;;
80423;SDS011;69765;47.668;19.326;2023-08-08T10:07:54;3.95;;;1.55;;
80423;SDS011;69765;47.668;19.326;2023-08-08T10:10:57;3.38;;;1.85;;
80423;SDS011;69765;47.668;19.326;2023-08-08T10:14:01;3.08;;;1.60;;
80423;SDS011;69765;47.668;19.326;2023-08-08T10:17:04;4.32;;;2.28;;
80423;SDS011;69765;47.668;19.326;2023-08-08T10:20:08;3.03;;;2.08;;
80423;SDS011;69765;47.668;19.326;2023-08-08T10:26:21;4.05;;;1.98;;
80423;SDS011;69765;47.668;19.326;2023-08-08T10:29:24;2.88;;;1.50;;
80423;SDS011;69765;47.668;19.326;2023-08-08T10:32:27;4.10;;;2.10;;
80423;SDS011;69765;47.668;19.326;2023-08-08T10:35:34;2.70;;;2.00;;
80423;SDS011;69765;47.668;19.326;2023-08-08T10:38:41;2.53;;;1.70;;
80423;SDS011;69765;47.668;19.326;2023-08-08T10:41:44;3.50;;;2.00;;
80423;SDS011;69765;47.668;19.326;2023-08-08T10:44:54;3.08;;;2.17;;
80423;SDS011;69765;47.668;19.326;2023-08-08T10:47:56;3.40;;;1.88;;
80423;SDS011;69765;47.668;19.326;2023-08-08T10:51:09;2.95;;;1.52;;
80423;SDS011;69765;47.668;19.326;2023-08-08T10:54:24;2.97;;;1.88;;
80423;SDS011;69765;47.668;19.326;2023-08-08T10:57:29;2.90;;;1.92;;
80423;SDS011;69765;47.668;19.326;2023-08-08T11:00:32;3.50;;;2.13;;
80423;SDS011;69765;47.668;19.326;2023-08-08T11:03:39;3.17;;;2.17;;
80423;SDS011;69765;47.668;19.326;2023-08-08T11:06:41;2.85;;;2.00;;
80423;SDS011;69765;47.668;19.326;2023-08-08T11:09:43;3.53;;;1.75;;
80423;SDS011;69765;47.668;19.326;2023-08-08T11:13:04;3.55;;;2.08;;
80423;SDS011;69765;47.668;19.326;2023-08-08T11:16:06;2.85;;;1.50;;
80423;SDS011;69765;47.668;19.326;2023-08-08T11:19:09;3.38;;;1.63;;
80423;SDS011;69765;47.668;19.326;2023-08-08T11:22:12;4.15;;;1.67;;
80423;SDS011;69765;47.668;19.326;2023-08-08T11:25:14;3.08;;;1.90;;
80423;SDS011;69765;47.668;19.326;2023-08-08T11:28:16;3.15;;;1.75;;
80423;SDS011;69765;47.668;19.326;2023-08-08T11:31:19;3.53;;;1.85;;
80423;SDS011;69765;47.668;19.326;2023-08-08T11:34:22;2.85;;;1.52;;
80423;SDS011;69765;47.668;19.326;2023-08-08T11:37:24;2.67;;;1.52;;
80423;SDS011;69765;47.668;19.326;2023-08-08T11:40:27;3.53;;;1.45;;
80423;SDS011;69765;47.668;19.326;2023-08-08T11:43:29;3.58;;;1.83;;
80423;SDS011;69765;47.668;19.326;2023-08-08T11:46:31;3.75;;;1.70;;
80423;SDS011;69765;47.668;19.326;2023-08-08T11:49:40;2.35;;;1.65;;
80423;SDS011;69765;47.668;19.326;2023-08-08T11:52:42;3.28;;;1.60;;
80423;SDS011;69765;47.668;19.326;2023-08-08T11:55:45;2.53;;;1.25;;
80423;SDS011;69765;47.668;19.326;2023-08-08T11:58:49;3.08;;;1.65;;
80423;SDS011;69765;47.668;19.326;2023-08-08T12:01:51;3.30;;;1.50;;
80423;SDS011;69765;47.668;19.326;2023-08-08T12:04:53;2.95;;;1.52;;
80423;SDS011;69765;47.668;19.326;2023-08-08T12:07:55;3.20;;;1.70;;
80423;SDS011;69765;47.668;19.326;2023-08-08T12:10:57;2.85;;;1.77;;
80423;SDS011;69765;47.668;19.326;2023-08-08T12:14:02;3.15;;;1.73;;
80423;SDS011;69765;47.668;19.326;2023-08-08T12:17:04;2.50;;;1.40;;
80423;SDS011;69765;47.668;19.326;2023-08-08T12:20:07;2.50;;;1.52;;
80423;SDS011;69765;47.668;19.326;2023-08-08T12:23:09;2.92;;;1.33;;
80423;SDS011;69765;47.668;19.326;2023-08-08T12:26:11;4.13;;;1.48;;
80423;SDS011;69765;47.668;19.326;2023-08-08T12:29:14;3.08;;;1.73;;
80423;SDS011;69765;47.668;19.326;2023-08-08T12:32:16;3.40;;;1.77;;
80423;SDS011;69765;47.668;19.326;2023-08-08T12:35:18;3.05;;;1.60;;
80423;SDS011;69765;47.668;19.326;2023-08-08T12:38:20;2.72;;;1.58;;
80423;SDS011;69765;47.668;19.326;2023-08-08T12:41:22;2.25;;;1.73;;
80423;SDS011;69765;47.668;19.326;2023-08-08T12:44:24;4.70;;;1.70;;
80423;SDS011;69765;47.668;19.326;2023-08-08T12:47:26;3.20;;;1.75;;
80423;SDS011;69765;47.668;19.326;2023-08-08T12:50:28;3.35;;;1.83;;
80423;SDS011;69765;47.668;19.326;2023-08-08T12:53:30;2.88;;;1.40;;
80423;SDS011;69765;47.668;19.326;2023-08-08T12:56:32;1.95;;;1.42;;
80423;SDS011;69765;47.668;19.326;2023-08-08T12:59:34;2.20;;;1.45;;
80423;SDS011;69765;47.668;19.326;2023-08-08T13:02:37;2.88;;;1.40;;
80423;SDS011;69765;47.668;19.326;2023-08-08T13:05:39;4.50;;;1.55;;
80423;SDS011;69765;47.668;19.326;2023-08-08T13:08:41;3.95;;;1.45;;
80423;SDS011;69765;47.668;19.326;2023-08-08T13:11:43;3.40;;;1.23;;
80423;SDS011;69765;47.668;19.326;2023-08-08T13:14:45;2.72;;;1.40;;
80423;SDS011;69765;47.668;19.326;2023-08-08T13:17:47;2.75;;;1.50;;
80423;SDS011;69765;47.668;19.326;2023-08-08T13:20:49;2.63;;;1.55;;
80423;SDS011;69765;47.668;19.326;2023-08-08T13:23:51;2.25;;;1.30;;
80423;SDS011;69765;47.668;19.326;2023-08-08T13:26:53;2.38;;;1.30;;
80423;SDS011;69765;47.668;19.326;2023-08-08T13:29:55;2.60;;;1.42;;
80423;SDS011;69765;47.668;19.326;2023-08-08T13:32:57;3.45;;;1.52;;
80423;SDS011;69765;47.668;19.326;2023-08-08T13:36:03;2.38;;;1.30;;
80423;SDS011;69765;47.668;19.326;2023-08-08T13:39:06;2.95;;;1.27;;
80423;SDS011;69765;47.668;19.326;2023-08-08T13:42:08;3.55;;;1.55;;
80423;SDS011;69765;47.668;19.326;2023-08-08T13:45:10;2.75;;;1.45;;
80423;SDS011;69765;47.668;19.326;2023-08-08T13:48:12;2.25;;;1.25;;
80423;SDS011;69765;47.668;19.326;2023-08-08T13:51:14;4.00;;;1.42;;
80423;SDS011;69765;47.668;19.326;2023-08-08T13:54:16;2.83;;;1.52;;
80423;SDS011;69765;47.668;19.326;2023-08-08T13:57:18;1.63;;;1.20;;
80423;SDS011;69765;47.668;19.326;2023-08-08T14:00:20;2.80;;;1.40;;
80423;SDS011;69765;47.668;19.326;2023-08-08T14:03:23;2.60;;;1.45;;
80423;SDS011;69765;47.668;19.326;2023-08-08T14:06:26;2.90;;;1.38;;
80423;SDS011;69765;47.668;19.326;2023-08-08T14:09:29;2.92;;;1.50;;
80423;SDS011;69765;47.668;19.326;2023-08-08T14:12:30;3.90;;;1.42;;
80423;SDS011;69765;47.668;19.326;2023-08-08T14:15:32;3.83;;;1.30;;
80423;SDS011;69765;47.668;19.326;2023-08-08T14:18:40;4.78;;;1.77;;
80423;SDS011;69765;47.668;19.326;2023-08-08T14:21:42;3.45;;;1.65;;
80423;SDS011;69765;47.668;19.326;2023-08-08T14:24:45;3.67;;;1.60;;
80423;SDS011;69765;47.668;19.326;2023-08-08T14:27:47;2.40;;;1.42;;
80423;SDS011;69765;47.668;19.326;2023-08-08T14:30:49;3.20;;;1.85;;
80423;SDS011;69765;47.668;19.326;2023-08-08T14:33:51;6.53;;;1.85;;
80423;SDS011;69765;47.668;19.326;2023-08-08T14:36:53;2.55;;;1.20;;
80423;SDS011;69765;47.668;19.326;2023-08-08T14:39:55;2.78;;;1.33;;
80423;SDS011;69765;47.668;19.326;2023-08-08T14:42:57;2.75;;;1.35;;
80423;SDS011;69765;47.668;19.326;2023-08-08T14:45:59;3.22;;;1.40;;
80423;SDS011;69765;47.668;19.326;2023-08-08T14:49:01;2.58;;;1.42;;
80423;SDS011;69765;47.668;19.326;2023-08-08T14:52:05;2.15;;;1.25;;
80423;SDS011;69765;47.668;19.326;2023-08-08T14:55:10;4.15;;;1.65;;
80423;SDS011;69765;47.668;19.326;2023-08-08T14:58:12;4.47;;;1.48;;
80423;SDS011;69765;47.668;19.326;2023-08-08T15:01:15;4.32;;;1.60;;
80423;SDS011;69765;47.668;19.326;2023-08-08T15:04:17;4.40;;;1.65;;
80423;SDS011;69765;47.668;19.326;2023-08-08T15:07:19;2.60;;;1.23;;
80423;SDS011;69765;47.668;19.326;2023-08-08T15:10:21;3.60;;;1.65;;
80423;SDS011;69765;47.668;19.326;2023-08-08T15:13:23;1.95;;;1.17;;
80423;SDS011;69765;47.668;19.326;2023-08-08T15:16:25;3.85;;;1.50;;
80423;SDS011;69765;47.668;19.326;2023-08-08T15:19:27;3.78;;;1.40;;
80423;SDS011;69765;47.668;19.326;2023-08-08T15:22:29;3.58;;;1.25;;
80423;SDS011;69765;47.668;19.326;2023-08-08T15:25:31;2.95;;;1.40;;
80423;SDS011;69765;47.668;19.326;2023-08-08T15:28:33;5.18;;;2.00;;
80423;SDS011;69765;47.668;19.326;2023-08-08T15:31:35;2.75;;;1.75;;
80423;SDS011;69765;47.668;19.326;2023-08-08T15:34:37;2.40;;;1.30;;
80423;SDS011;69765;47.668;19.326;2023-08-08T15:37:39;2.95;;;1.40;;
80423;SDS011;69765;47.668;19.326;2023-08-08T15:40:41;3.80;;;2.10;;
80423;SDS011;69765;47.668;19.326;2023-08-08T15:43:44;3.03;;;1.42;;
80423;SDS011;69765;47.668;19.326;2023-08-08T15:46:46;2.28;;;1.05;;
80423;SDS011;69765;47.668;19.326;2023-08-08T15:49:48;2.58;;;1.42;;
80423;SDS011;69765;47.668;19.326;2023-08-08T15:52:50;2.80;;;1.50;;
80423;SDS011;69765;47.668;19.326;2023-08-08T15:55:56;2.17;;;1.35;;
80423;SDS011;69765;47.668;19.326;2023-08-08T15:58:59;4.95;;;1.55;;
80423;SDS011;69765;47.668;19.326;2023-08-08T16:02:01;2.42;;;1.25;;
80423;SDS011;69765;47.668;19.326;2023-08-08T16:05:03;2.70;;;1.20;;
80423;SDS011;69765;47.668;19.326;2023-08-08T16:08:05;2.67;;;1.52;;
80423;SDS011;69765;47.668;19.326;2023-08-08T16:11:08;3.47;;;1.75;;
80423;SDS011;69765;47.668;19.326;2023-08-08T16:14:11;3.22;;;1.83;;
80423;SDS011;69765;47.668;19.326;2023-08-08T16:17:13;4.20;;;1.80;;
80423;SDS011;69765;47.668;19.326;2023-08-08T16:20:15;4.50;;;2.53;;
80423;SDS011;69765;47.668;19.326;2023-08-08T16:23:20;4.72;;;1.58;;
80423;SDS011;69765;47.668;19.326;2023-08-08T16:26:22;2.75;;;1.67;;
80423;SDS011;69765;47.668;19.326;2023-08-08T16:29:24;3.17;;;1.60;;
80423;SDS011;69765;47.668;19.326;2023-08-08T16:32:26;4.18;;;2.10;;
80423;SDS011;69765;47.668;19.326;2023-08-08T16:35:28;3.33;;;1.58;;
80423;SDS011;69765;47.668;19.326;2023-08-08T16:38:30;3.60;;;1.55;;
80423;SDS011;69765;47.668;19.326;2023-08-08T16:41:33;4.55;;;1.67;;
80423;SDS011;69765;47.668;19.326;2023-08-08T16:44:35;2.95;;;1.60;;
80423;SDS011;69765;47.668;19.326;2023-08-08T16:47:37;4.00;;;2.35;;
80423;SDS011;69765;47.668;19.326;2023-08-08T16:50:39;4.90;;;2.38;;
80423;SDS011;69765;47.668;19.326;2023-08-08T16:53:41;5.85;;;1.75;;
80423;SDS011;69765;47.668;19.326;2023-08-08T16:56:43;4.90;;;2.80;;
80423;SDS011;69765;47.668;19.326;2023-08-08T16:59:45;4.75;;;2.20;;
80423;SDS011;69765;47.668;19.326;2023-08-08T17:02:47;3.97;;;2.20;;
80423;SDS011;69765;47.668;19.326;2023-08-08T17:05:49;5.13;;;2.13;;
80423;SDS011;69765;47.668;19.326;2023-08-08T17:08:51;4.63;;;2.00;;
80423;SDS011;69765;47.668;19.326;2023-08-08T17:11:53;3.42;;;1.73;;
80423;SDS011;69765;47.668;19.326;2023-08-08T17:14:55;4.45;;;1.98;;
80423;SDS011;69765;47.668;19.326;2023-08-08T17:17:57;3.80;;;2.10;;
80423;SDS011;69765;47.668;19.326;2023-08-08T17:20:59;5.63;;;2.00;;
80423;SDS011;69765;47.668;19.326;2023-08-08T17:24:03;3.13;;;1.77;;
80423;SDS011;69765;47.668;19.326;2023-08-08T17:27:05;5.05;;;2.00;;
80423;SDS011;69765;47.668;19.326;2023-08-08T17:30:08;4.07;;;1.95;;
80423;SDS011;69765;47.668;19.326;2023-08-08T17:33:12;5.68;;;2.28;;
80423;SDS011;69765;47.668;19.326;2023-08-08T17:36:13;6.80;;;2.78;;
80423;SDS011;69765;47.668;19.326;2023-08-08T17:39:16;6.07;;;2.00;;
80423;SDS011;69765;47.668;19.326;2023-08-08T17:42:18;6.00;;;1.65;;
80423;SDS011;69765;47.668;19.326;2023-08-08T17:45:20;6.65;;;2.28;;
80423;SDS011;69765;47.668;19.326;2023-08-08T17:48:22;6.15;;;2.65;;
80423;SDS011;69765;47.668;19.326;2023-08-08T17:51:24;8.07;;;3.60;;
80423;SDS011;69765;47.668;19.326;2023-08-08T17:54:26;7.03;;;2.90;;
80423;SDS011;69765;47.668;19.326;2023-08-08T17:57:28;4.10;;;2.17;;
80423;SDS011;69765;47.668;19.326;2023-08-08T18:00:30;6.25;;;2.38;;
80423;SDS011;69765;47.668;19.326;2023-08-08T18:03:33;3.30;;;1.90;;
80423;SDS011;69765;47.668;19.326;2023-08-08T18:06:35;6.55;;;2.42;;
80423;SDS011;69765;47.668;19.326;2023-08-08T18:09:38;5.90;;;2.53;;
80423;SDS011;69765;47.668;19.326;2023-08-08T18:12:41;5.40;;;2.50;;